createdAt,value
2019-05-28T06:17:07.273Z,22.30
2019-05-28T06:17:44.611Z,22.06
2019-05-28T06:18:23.685Z,22.09
2019-05-28T06:18:59.248Z,21.96
2019-05-28T06:19:36.115Z,21.56
2019-05-28T06:20:13.400Z,21.72
2019-05-28T06:21:06.414Z,21.97
2019-05-28T06:21:31.554Z,21.94
2019-05-28T06:22:08.261Z,21.95
2019-05-28T06:22:44.965Z,21.95
2019-05-28T06:23:21.711Z,21.91
2019-05-28T06:24:02.300Z,22.12
2019-05-28T06:24:39.455Z,22.27
2019-05-28T06:25:17.445Z,22.30
2019-05-28T06:25:54.260Z,22.20
2019-05-28T06:26:30.635Z,22.24
2019-05-28T06:27:08.271Z,22.27
2019-05-28T06:27:45.309Z,22.27
2019-05-28T06:28:23.883Z,22.39
2019-05-28T06:29:01.290Z,22.62
2019-05-28T06:29:39.580Z,22.66
2019-05-28T06:30:17.488Z,22.61
2019-05-28T06:30:55.485Z,22.73
2019-05-28T06:31:31.773Z,22.81
2019-05-28T06:32:08.280Z,22.69
2019-05-28T06:32:45.547Z,22.69
2019-05-28T06:33:24.513Z,22.81
2019-05-28T06:34:02.766Z,22.81
2019-05-28T06:34:42.799Z,22.96
2019-05-28T06:35:20.977Z,22.88
2019-05-28T06:35:57.906Z,22.84
2019-05-28T06:36:35.263Z,22.72
2019-05-28T06:37:13.100Z,22.32
2019-05-28T06:37:49.652Z,22.32
2019-05-28T06:38:27.269Z,22.15
2019-05-28T06:39:03.809Z,22.15
2019-05-28T06:39:40.375Z,22.03
2019-05-28T06:40:16.545Z,22.09
2019-05-28T06:40:53.261Z,22.15
2019-05-28T06:41:29.940Z,22.20
2019-05-28T06:42:09.241Z,22.34
2019-05-28T06:42:48.524Z,22.06
2019-05-28T06:43:25.546Z,21.92
2019-05-28T06:44:03.284Z,21.94
2019-05-28T06:44:39.290Z,21.94
2019-05-28T06:45:15.954Z,21.94
2019-05-28T06:45:52.859Z,22.03
2019-05-28T06:46:30.093Z,22.12
2019-05-28T06:47:06.520Z,22.13
2019-05-28T06:47:45.433Z,22.27
2019-05-28T06:48:22.260Z,22.37
2019-05-28T06:49:00.572Z,22.47
2019-05-28T06:49:38.978Z,22.72
2019-05-28T06:50:15.935Z,22.72
2019-05-28T06:50:52.603Z,22.86
2019-05-28T06:51:30.400Z,23.13
2019-05-28T06:52:07.882Z,23.13
2019-05-28T16:06:19.509Z,24.13
2019-05-28T16:06:59.325Z,24.11
2019-05-28T16:07:41.516Z,24.30
2019-05-28T16:08:21.356Z,24.30
2019-05-28T16:09:07.281Z,24.39
2019-05-28T16:09:55.769Z,24.46
2019-05-28T16:10:27.386Z,24.58
2019-05-28T16:11:05.138Z,24.58
2019-05-28T16:11:44.315Z,24.52
2019-05-28T16:12:21.036Z,24.25
2019-05-28T16:13:07.945Z,24.25
2019-05-28T16:13:38.301Z,24.21
2019-05-28T16:14:14.936Z,24.02
2019-05-28T16:14:52.511Z,24.10
2019-05-28T16:15:29.692Z,23.62
2019-05-28T16:16:07.820Z,23.62
2019-05-28T16:16:45.501Z,23.60
2019-05-28T16:17:37.049Z,23.59
2019-05-28T16:18:15.283Z,23.63
2019-05-28T16:18:54.274Z,23.59
2019-05-28T16:19:33.268Z,23.59
2019-05-28T16:20:09.867Z,23.59
2019-05-28T16:20:48.120Z,23.64
2019-05-28T16:21:25.412Z,23.65
2019-05-28T16:22:05.282Z,23.67
2019-05-28T16:22:42.330Z,23.61
2019-05-28T16:23:19.688Z,23.60
2019-05-28T16:23:57.512Z,23.69
2019-05-28T16:24:35.359Z,23.61
2019-05-28T16:25:17.498Z,23.59
2019-05-28T16:25:56.406Z,23.77
2019-05-28T16:26:33.329Z,23.71
2019-05-28T16:27:10.915Z,23.73
2019-05-28T16:27:47.716Z,23.82
2019-05-28T16:28:25.318Z,23.74
2019-05-28T16:29:02.274Z,23.72
2019-05-28T16:29:39.301Z,23.54
2019-05-28T16:30:15.957Z,23.40
2019-05-28T16:31:11.106Z,23.60
2019-05-28T16:31:34.075Z,23.70
2019-05-28T16:32:12.988Z,23.85
2019-05-28T16:32:51.326Z,23.72
2019-05-28T16:33:29.485Z,23.58
2019-05-28T16:34:06.372Z,23.40
2019-05-28T16:34:43.283Z,23.64
2019-05-28T16:35:21.570Z,23.53
2019-05-28T16:35:57.395Z,23.45
2019-05-28T16:36:34.359Z,23.44
2019-05-28T16:37:10.842Z,23.26
2019-05-28T16:37:49.666Z,23.33
2019-05-28T16:38:27.096Z,23.33
2019-05-28T16:39:05.649Z,23.33
2019-05-28T16:39:47.461Z,23.17
2019-05-28T16:40:24.256Z,23.41
2019-05-28T16:41:01.234Z,23.60
2019-05-28T16:41:38.543Z,23.76
2019-05-28T16:42:15.262Z,23.90
2019-05-28T16:42:52.239Z,24.06
2019-05-28T16:43:29.531Z,24.23
